createdAt,value
2018-02-08T00:01:00.682Z,101.53
2018-02-08T00:03:28.265Z,105.60
2018-02-08T00:05:55.879Z,96.37
2018-02-08T00:08:23.468Z,90.83
2018-02-08T00:10:51.071Z,89.90
2018-02-08T00:13:20.130Z,86.03
2018-02-08T00:15:47.783Z,96.93
2018-02-08T00:18:15.419Z,88.93
2018-02-08T00:20:43.011Z,86.80
2018-02-08T00:23:10.741Z,84.90
2018-02-08T00:25:38.346Z,93.13
2018-02-08T00:28:05.929Z,96.47
2018-02-08T00:30:33.640Z,95.70
2018-02-08T00:33:01.215Z,86.53
2018-02-08T00:35:28.805Z,86.37
2018-02-08T00:37:56.518Z,90.73
2018-02-08T00:40:24.095Z,88.37
2018-02-08T00:42:51.677Z,90.50
2018-02-08T00:45:19.263Z,85.20
2018-02-08T00:47:47.612Z,92.43
2018-02-08T00:50:15.601Z,83.33
2018-02-08T00:52:43.958Z,91.10
2018-02-08T00:55:12.303Z,95.00
2018-02-08T00:57:39.889Z,89.67
2018-02-08T01:00:07.508Z,96.07
2018-02-08T01:02:35.516Z,108.50
2018-02-08T01:05:03.101Z,99.07
2018-02-08T01:07:30.659Z,104.50
2018-02-08T01:09:59.038Z,102.87
2018-02-08T01:12:27.375Z,101.40
2018-02-08T01:14:54.991Z,115.57
2018-02-08T01:17:22.573Z,100.67
2018-02-08T01:19:50.159Z,101.67
2018-02-08T01:22:17.744Z,116.73
2018-02-08T01:24:45.319Z,118.73
2018-02-08T01:27:13.703Z,129.60
2018-02-08T01:29:42.051Z,128.70
2018-02-08T01:32:09.685Z,155.97
2018-02-08T01:34:37.770Z,128.10
2018-02-08T01:37:05.340Z,131.70
2018-02-08T01:39:33.446Z,128.67
2018-02-08T01:42:01.792Z,124.40
2018-02-08T01:44:29.361Z,121.20
2018-02-08T01:46:56.945Z,109.93
2018-02-08T01:49:36.349Z,112.80
2018-02-08T01:52:04.304Z,121.03
2018-02-08T01:54:31.893Z,126.57
2018-02-08T01:57:00.239Z,129.73
2018-02-08T01:59:27.863Z,124.90
2018-02-08T02:01:55.477Z,134.30
2018-02-08T02:04:23.103Z,131.70
2018-02-08T02:06:50.674Z,111.40
2018-02-08T02:09:18.270Z,106.47
2018-02-08T02:11:46.647Z,122.20
2018-02-08T02:14:15.031Z,107.40
2018-02-08T02:16:43.372Z,108.90
2018-02-08T02:19:11.626Z,115.53
2018-02-08T02:21:39.207Z,111.90
2018-02-08T02:24:07.574Z,116.97
2018-02-08T02:26:35.180Z,107.90
2018-02-08T02:29:03.540Z,108.97
2018-02-08T02:31:31.867Z,140.27
2018-02-08T02:33:59.462Z,124.40
2018-02-08T02:36:27.037Z,114.77
2018-02-08T02:38:56.298Z,122.10
2018-02-08T02:41:23.877Z,133.13
2018-02-08T02:43:51.453Z,125.07
2018-02-08T02:46:19.811Z,124.53
2018-02-08T02:48:47.386Z,141.57
2018-02-08T02:51:15.762Z,126.90
2018-02-08T02:53:43.329Z,134.27
2018-02-08T02:56:11.694Z,136.00
2018-02-08T02:58:40.771Z,117.93
2018-02-08T03:01:08.377Z,126.00
2018-02-08T03:03:36.288Z,113.60
2018-02-08T03:06:03.850Z,125.37
2018-02-08T03:08:31.429Z,118.27
2018-02-08T03:10:59.021Z,107.57
2018-02-08T03:13:26.599Z,112.97
2018-02-08T03:15:54.477Z,116.87
2018-02-08T03:18:22.033Z,108.67
2018-02-08T03:20:49.608Z,113.93
2018-02-08T03:23:17.210Z,110.23
2018-02-08T03:25:45.555Z,107.20
2018-02-08T03:28:13.433Z,116.33
2018-02-08T03:33:45.690Z,106.40
2018-02-08T03:36:13.286Z,106.60
2018-02-08T03:38:41.634Z,104.33
2018-02-08T03:41:09.237Z,103.57
2018-02-08T03:43:37.594Z,97.20
2018-02-08T03:46:05.475Z,97.03
2018-02-08T03:48:33.822Z,100.27
2018-02-08T03:51:01.392Z,90.50
2018-02-08T03:53:28.979Z,92.63
2018-02-08T03:55:57.316Z,91.73
2018-02-08T03:58:25.283Z,86.80
2018-02-08T04:00:52.846Z,98.20
2018-02-08T04:03:20.515Z,105.30
2018-02-08T04:05:48.862Z,96.00
2018-02-08T04:08:16.448Z,95.43
2018-02-08T04:10:44.405Z,92.40
2018-02-08T04:13:11.979Z,97.63
2018-02-08T04:15:39.557Z,106.00
2018-02-08T04:18:07.913Z,104.43
2018-02-08T04:20:35.858Z,114.13
2018-02-08T04:23:03.438Z,111.93
2018-02-08T04:25:31.804Z,116.73
2018-02-08T04:27:59.383Z,107.50
2018-02-08T04:30:27.321Z,115.37
2018-02-08T04:32:54.891Z,115.77
2018-02-08T04:35:22.446Z,110.90
2018-02-08T04:37:50.045Z,118.53
2018-02-08T04:40:30.314Z,104.50
2018-02-08T04:43:09.776Z,112.27
2018-02-08T04:45:49.203Z,100.30
2018-02-08T04:48:16.813Z,106.60
2018-02-08T04:50:45.172Z,99.40
2018-02-08T04:53:12.771Z,102.43
2018-02-08T04:55:41.113Z,89.57
2018-02-08T04:58:08.818Z,111.73
2018-02-08T05:00:37.125Z,95.53
2018-02-08T05:03:04.714Z,102.40
2018-02-08T05:05:32.293Z,98.63
2018-02-08T05:07:59.851Z,105.90
2018-02-08T05:10:28.501Z,101.60
2018-02-08T05:12:56.084Z,111.70
2018-02-08T05:15:25.167Z,100.40
2018-02-08T05:17:52.760Z,97.63
2018-02-08T05:20:21.098Z,93.43
2018-02-08T05:22:48.715Z,94.77
2018-02-08T05:25:16.303Z,99.10
2018-02-08T05:27:43.874Z,93.40
2018-02-08T05:30:11.698Z,97.03
2018-02-08T05:32:39.265Z,86.57
2018-02-08T05:35:06.823Z,92.83
2018-02-08T05:37:34.681Z,98.83
2018-02-08T05:40:02.251Z,83.40
2018-02-08T05:42:29.823Z,78.87
2018-02-08T05:44:57.426Z,92.73
2018-02-08T05:47:25.752Z,81.80
2018-02-08T05:49:53.613Z,86.80
2018-02-08T05:52:21.210Z,79.03
2018-02-08T05:54:49.630Z,83.20
2018-02-08T05:57:17.280Z,83.97
2018-02-08T05:59:45.631Z,80.30
2018-02-08T06:02:14.710Z,79.70
2018-02-08T06:04:42.376Z,76.37
2018-02-08T06:07:10.007Z,91.63
2018-02-08T06:09:37.625Z,76.00
2018-02-08T06:12:05.996Z,83.00
2018-02-08T06:14:34.383Z,84.27
2018-02-08T06:17:02.729Z,79.67
2018-02-08T06:19:30.760Z,84.60
2018-02-08T06:21:58.671Z,78.30
2018-02-08T06:24:26.237Z,87.57
2018-02-08T06:26:53.812Z,76.17
2018-02-08T06:29:22.197Z,79.03
2018-02-08T06:31:50.559Z,71.00
2018-02-08T06:34:18.900Z,82.87
2018-02-08T06:36:46.517Z,76.50
2018-02-08T06:39:14.987Z,79.27
2018-02-08T06:41:43.294Z,77.70
2018-02-08T06:44:10.887Z,96.90
2018-02-08T06:46:38.480Z,74.00
2018-02-08T06:49:06.818Z,81.33
2018-02-08T06:51:34.421Z,83.40
2018-02-08T06:54:02.959Z,77.60
2018-02-08T06:56:30.517Z,76.77
2018-02-08T06:58:58.139Z,79.93
2018-02-08T07:01:25.710Z,87.30
2018-02-08T07:03:53.311Z,82.77
2018-02-08T07:06:20.887Z,82.50
2018-02-08T07:08:49.203Z,95.10
2018-02-08T07:11:17.194Z,70.90
2018-02-08T07:13:44.826Z,84.80
2018-02-08T07:16:12.404Z,80.03
2018-02-08T07:18:40.024Z,82.83
2018-02-08T07:21:08.375Z,81.63
2018-02-08T07:23:35.964Z,80.03
2018-02-08T07:26:04.282Z,69.23
2018-02-08T07:28:31.840Z,70.03
2018-02-08T07:30:59.432Z,74.80
2018-02-08T07:33:27.139Z,74.90
2018-02-08T07:35:54.798Z,79.90
2018-02-08T07:38:22.368Z,80.53
2018-02-08T07:40:49.962Z,80.40
2018-02-08T07:43:17.532Z,72.80
2018-02-08T07:45:45.924Z,77.63
2018-02-08T07:48:14.262Z,90.57
2018-02-08T07:50:41.918Z,83.60
2018-02-08T07:53:09.509Z,87.37
2018-02-08T07:55:37.094Z,87.63
2018-02-08T07:58:04.660Z,89.23
2018-02-08T08:00:32.223Z,81.10
2018-02-08T08:02:59.828Z,83.87
2018-02-08T08:05:27.398Z,85.50
2018-02-08T08:07:55.743Z,77.10
2018-02-08T08:10:23.332Z,93.70
2018-02-08T08:12:50.944Z,87.30
2018-02-08T08:15:19.261Z,106.43
2018-02-08T08:17:46.866Z,89.13
2018-02-08T08:20:14.447Z,91.80
2018-02-08T08:22:42.298Z,86.00
2018-02-08T08:25:09.897Z,82.40
2018-02-08T08:27:37.506Z,95.40
2018-02-08T08:30:05.105Z,91.30
2018-02-08T08:32:32.676Z,94.27
2018-02-08T08:35:00.269Z,93.47
2018-02-08T08:37:28.895Z,99.03
2018-02-08T08:39:56.462Z,100.73
2018-02-08T08:42:24.053Z,101.97
2018-02-08T08:44:51.634Z,87.17
2018-02-08T08:47:20.035Z,92.00
2018-02-08T08:49:47.630Z,93.90
2018-02-08T08:52:15.253Z,90.60
2018-02-08T08:54:42.811Z,88.13
2018-02-08T08:57:10.413Z,93.80
2018-02-08T08:59:37.975Z,87.93
2018-02-08T09:02:05.698Z,99.40
2018-02-08T09:04:33.533Z,86.70
2018-02-08T09:07:01.912Z,97.03
2018-02-08T09:09:30.499Z,83.67
2018-02-08T09:11:59.026Z,86.67
2018-02-08T09:14:26.593Z,88.90
2018-02-08T09:16:54.557Z,88.70
2018-02-08T09:19:22.188Z,88.03
2018-02-08T09:21:49.781Z,94.40
2018-02-08T09:24:17.509Z,67.20
2018-02-08T09:26:45.096Z,77.50
2018-02-08T09:29:12.661Z,74.60
2018-02-08T09:31:40.275Z,78.63
2018-02-08T09:34:07.844Z,77.23
2018-02-08T09:36:35.415Z,75.93
2018-02-08T09:39:03.009Z,82.53
2018-02-08T09:41:30.580Z,84.53
2018-02-08T09:43:58.928Z,76.00
2018-02-08T09:46:26.561Z,73.13
2018-02-08T09:48:54.153Z,79.40
2018-02-08T09:51:21.905Z,80.30
2018-02-08T09:53:49.490Z,73.77
2018-02-08T09:56:17.094Z,80.03
2018-02-08T09:58:44.676Z,75.33
2018-02-08T10:01:12.323Z,78.67
2018-02-08T10:03:39.926Z,82.10
2018-02-08T10:06:07.503Z,85.43
2018-02-08T10:08:36.821Z,73.07
2018-02-08T10:11:04.497Z,63.70
2018-02-08T10:13:32.071Z,69.67
2018-02-08T10:15:59.638Z,76.70
2018-02-08T10:18:27.239Z,64.37
2018-02-08T10:20:55.573Z,61.93
2018-02-08T10:23:23.134Z,68.53
2018-02-08T10:25:50.839Z,64.93
2018-02-08T10:28:19.173Z,62.33
2018-02-08T10:30:46.749Z,60.47
2018-02-08T10:33:14.372Z,53.67
2018-02-08T10:35:41.960Z,57.53
2018-02-08T10:38:09.554Z,56.53
2018-02-08T10:40:38.008Z,58.47
2018-02-08T10:43:05.588Z,59.23
2018-02-08T10:45:33.919Z,62.73
2018-02-08T10:48:01.509Z,51.60
2018-02-08T10:50:29.090Z,49.60
2018-02-08T10:52:57.433Z,53.90
2018-02-08T10:55:25.021Z,50.30
2018-02-08T10:57:53.340Z,52.33
2018-02-08T11:00:20.896Z,48.13
2018-02-08T11:02:48.495Z,56.93
2018-02-08T11:05:16.053Z,46.97
2018-02-08T11:07:43.608Z,49.03
2018-02-08T11:10:11.219Z,55.43
2018-02-08T11:12:39.015Z,43.63
2018-02-08T11:15:06.651Z,50.37
2018-02-08T11:17:34.245Z,49.70
2018-02-08T11:20:01.801Z,52.10
2018-02-08T11:22:29.360Z,46.53
2018-02-08T11:24:56.957Z,41.67
2018-02-08T11:27:25.283Z,46.33
2018-02-08T11:29:52.845Z,43.10
2018-02-08T11:32:20.438Z,47.37
2018-02-08T11:34:48.810Z,46.93
2018-02-08T11:37:16.379Z,59.27
2018-02-08T11:39:44.702Z,47.50
2018-02-08T11:42:12.300Z,46.77
2018-02-08T11:44:39.856Z,53.40
2018-02-08T11:47:07.838Z,47.23
2018-02-08T11:49:36.179Z,43.87
2018-02-08T11:52:03.765Z,47.20
2018-02-08T11:54:32.862Z,47.03
2018-02-08T11:57:01.942Z,55.37
2018-02-08T11:59:31.891Z,55.43
2018-02-08T12:01:59.518Z,44.77
2018-02-08T12:04:27.146Z,43.47
2018-02-08T12:06:54.744Z,53.53
2018-02-08T12:09:22.456Z,39.03
2018-02-08T12:11:50.054Z,40.60
2018-02-08T12:14:17.651Z,40.87
2018-02-08T12:16:46.398Z,44.27
2018-02-08T12:19:13.958Z,42.90
2018-02-08T12:21:41.516Z,43.53
2018-02-08T12:24:09.119Z,38.90
2018-02-08T12:26:37.431Z,40.43
2018-02-08T12:29:04.999Z,43.00
2018-02-08T12:31:32.593Z,36.63
2018-02-08T12:34:00.932Z,32.57
2018-02-08T12:36:28.510Z,38.07
2018-02-08T12:38:56.900Z,42.97
2018-02-08T12:41:24.469Z,32.93
2018-02-08T12:43:52.802Z,31.30
2018-02-08T12:46:20.539Z,30.10
2018-02-08T12:48:48.107Z,33.03
2018-02-08T12:51:15.666Z,33.43
2018-02-08T12:53:43.260Z,36.10
2018-02-08T12:56:12.329Z,33.63
2018-02-08T12:58:39.935Z,35.00
2018-02-08T13:01:08.343Z,35.40
2018-02-08T13:03:35.896Z,36.07
2018-02-08T13:06:03.471Z,37.77
2018-02-08T13:08:31.085Z,35.40
2018-02-08T13:10:59.492Z,34.13
2018-02-08T13:13:27.658Z,38.27
2018-02-08T13:15:55.987Z,41.07
2018-02-08T13:18:23.551Z,39.07
2018-02-08T13:20:51.157Z,40.83
2018-02-08T13:23:18.722Z,34.87
2018-02-08T13:25:46.295Z,38.10
2018-02-08T13:28:13.933Z,39.07
2018-02-08T13:30:42.254Z,34.53
2018-02-08T13:33:09.819Z,36.10
2018-02-08T13:35:37.975Z,36.53
2018-02-08T13:38:05.507Z,35.63
2018-02-08T13:40:33.831Z,39.83
2018-02-08T13:43:01.432Z,37.97
2018-02-08T13:45:29.361Z,43.40
2018-02-08T13:48:02.651Z,35.20
2018-02-08T13:50:35.087Z,36.43
2018-02-08T13:56:13.134Z,39.13
2018-02-08T13:58:46.139Z,37.77
2018-02-08T14:01:24.532Z,40.90
2018-02-08T14:03:52.113Z,38.50
2018-02-08T14:06:19.662Z,39.10
2018-02-08T14:08:47.294Z,34.30
2018-02-08T14:11:14.926Z,40.00
2018-02-08T14:13:42.485Z,42.90
2018-02-08T14:16:10.044Z,37.77
2018-02-08T14:18:37.638Z,34.93
2018-02-08T14:21:05.231Z,41.33
2018-02-08T14:23:32.795Z,39.77
2018-02-08T14:26:00.388Z,38.43
2018-02-08T14:28:27.986Z,38.63
2018-02-08T14:30:55.552Z,38.23
2018-02-08T14:33:23.451Z,40.10
2018-02-08T14:35:51.775Z,42.47
2018-02-08T14:38:21.530Z,36.20
2018-02-08T14:40:49.865Z,40.10
2018-02-08T14:43:17.506Z,40.97
2018-02-08T14:45:45.265Z,42.80
2018-02-08T14:48:12.837Z,37.27
2018-02-08T14:50:40.445Z,38.60
2018-02-08T14:53:08.809Z,41.93
2018-02-08T14:55:36.375Z,40.23
2018-02-08T14:58:05.900Z,43.87
2018-02-08T15:00:34.387Z,40.10
2018-02-08T15:03:02.723Z,42.43
2018-02-08T15:05:30.312Z,46.27
2018-02-08T15:07:58.637Z,46.00
2018-02-08T15:10:26.253Z,39.43
2018-02-08T15:12:54.592Z,42.37
2018-02-08T15:15:22.162Z,43.63
2018-02-08T15:17:49.758Z,44.03
2018-02-08T15:20:17.467Z,53.53
2018-02-08T15:22:46.596Z,43.83
2018-02-08T15:25:14.936Z,50.37
2018-02-08T15:27:42.685Z,50.50
2018-02-08T15:30:11.346Z,52.93
2018-02-08T15:32:38.902Z,41.53
2018-02-08T15:35:06.580Z,43.80
2018-02-08T15:37:34.136Z,48.53
2018-02-08T15:40:01.699Z,48.03
2018-02-08T15:42:29.278Z,47.80
2018-02-08T15:44:56.838Z,51.00
2018-02-08T15:47:24.423Z,54.33
2018-02-08T15:49:53.494Z,57.67
2018-02-08T15:52:21.092Z,52.50
2018-02-08T15:54:49.446Z,50.47
2018-02-08T15:57:17.042Z,56.47
2018-02-08T15:59:44.656Z,57.10
2018-02-08T16:02:12.220Z,52.37
2018-02-08T16:04:40.589Z,51.93
2018-02-08T16:07:08.155Z,50.47
2018-02-08T16:09:36.106Z,53.27
2018-02-08T16:12:03.951Z,59.37
2018-02-08T16:14:31.516Z,54.17
2018-02-08T16:16:59.293Z,58.50
2018-02-08T16:19:26.860Z,57.40
2018-02-08T16:21:54.436Z,54.47
2018-02-08T16:24:22.029Z,57.10
2018-02-08T16:26:49.636Z,55.40
2018-02-08T16:29:17.633Z,47.10
2018-02-08T16:31:46.358Z,50.90
2018-02-08T16:34:13.934Z,51.37
2018-02-08T16:36:41.498Z,54.60
2018-02-08T16:39:09.128Z,53.27
2018-02-08T16:41:36.691Z,64.40
2018-02-08T16:44:04.254Z,61.07
2018-02-08T16:46:31.860Z,56.27
2018-02-08T16:48:59.475Z,57.30
2018-02-08T16:51:27.046Z,57.27
2018-02-08T16:53:54.623Z,58.23
2018-02-08T16:56:22.275Z,71.83
2018-02-08T16:58:50.046Z,52.63
2018-02-08T17:01:17.652Z,62.77
2018-02-08T17:03:45.221Z,60.27
2018-02-08T17:06:12.831Z,55.77
2018-02-08T17:08:40.447Z,56.83
2018-02-08T17:11:08.014Z,57.67
2018-02-08T17:13:35.595Z,54.20
2018-02-08T17:16:03.576Z,66.03
2018-02-08T17:18:31.142Z,63.67
2018-02-08T17:20:58.726Z,57.13
2018-02-08T17:23:27.097Z,57.27
2018-02-08T17:25:55.435Z,69.37
2018-02-08T17:28:23.379Z,63.90
2018-02-08T17:30:50.984Z,66.10
2018-02-08T17:33:18.585Z,60.73
2018-02-08T17:35:46.183Z,62.60
2018-02-08T17:38:13.771Z,59.53
2018-02-08T17:40:42.171Z,63.90
2018-02-08T17:43:09.768Z,58.30
2018-02-08T17:45:37.504Z,72.40
2018-02-08T17:48:05.088Z,67.67
2018-02-08T17:50:32.660Z,64.37
2018-02-08T17:53:00.294Z,60.87
2018-02-08T17:55:27.882Z,72.60
2018-02-08T17:57:55.460Z,65.43
2018-02-08T18:00:23.935Z,64.53
2018-02-08T18:02:51.721Z,67.87
2018-02-08T18:05:20.063Z,66.47
2018-02-08T18:07:47.701Z,74.23
2018-02-08T18:10:15.289Z,73.63
2018-02-08T18:12:42.904Z,71.47
2018-02-08T18:15:11.319Z,72.60
2018-02-08T18:17:38.950Z,71.77
2018-02-08T18:20:07.361Z,71.17
2018-02-08T18:22:34.950Z,71.37
2018-02-08T18:25:03.829Z,66.47
2018-02-08T18:27:32.157Z,69.27
2018-02-08T18:29:59.760Z,69.03
2018-02-08T18:32:27.384Z,70.20
2018-02-08T18:34:54.977Z,67.70
2018-02-08T18:37:22.616Z,75.10
2018-02-08T18:39:50.194Z,69.20
2018-02-08T18:42:17.851Z,71.93
2018-02-08T18:44:46.983Z,74.23
2018-02-08T18:47:14.665Z,68.23
2018-02-08T18:49:42.293Z,71.87
2018-02-08T18:52:10.657Z,69.30
2018-02-08T18:54:38.231Z,76.00
2018-02-08T18:57:06.614Z,73.33
2018-02-08T18:59:34.941Z,74.60
2018-02-08T19:02:02.506Z,69.73
2018-02-08T19:04:30.135Z,78.97
2018-02-08T19:06:57.705Z,74.83
2018-02-08T19:09:25.281Z,70.13
2018-02-08T19:11:53.564Z,74.70
2018-02-08T19:14:21.129Z,75.57
2018-02-08T19:16:48.691Z,80.70
2018-02-08T19:19:16.305Z,78.63
2018-02-08T19:21:43.877Z,79.20
2018-02-08T19:24:11.522Z,77.17
2018-02-08T19:26:39.089Z,82.10
2018-02-08T19:29:06.672Z,80.57
2018-02-08T19:31:34.290Z,73.67
2018-02-08T19:34:01.857Z,74.67
2018-02-08T19:36:29.445Z,72.77
2018-02-08T19:38:57.054Z,77.47
2018-02-08T19:41:25.405Z,73.97
2018-02-08T19:43:52.988Z,85.40
2018-02-08T19:46:21.422Z,79.43
2018-02-08T19:48:48.988Z,76.60
2018-02-08T19:51:16.576Z,79.73
2018-02-08T19:53:44.967Z,79.30
2018-02-08T19:56:13.353Z,76.67
2018-02-08T19:58:41.029Z,75.33
2018-02-08T20:01:08.638Z,86.37
2018-02-08T20:03:36.249Z,83.37
2018-02-08T20:06:03.841Z,80.10
2018-02-08T20:08:31.409Z,75.90
2018-02-08T20:10:59.109Z,75.27
2018-02-08T20:13:26.691Z,80.67
2018-02-08T20:15:54.277Z,72.10
2018-02-08T20:18:22.246Z,72.50
2018-02-08T20:20:49.830Z,72.80
2018-02-08T20:23:18.255Z,75.50
2018-02-08T20:25:45.853Z,77.53
2018-02-08T20:28:13.426Z,76.13
2018-02-08T20:30:41.961Z,78.10
2018-02-08T20:33:09.578Z,74.77
2018-02-08T20:35:37.924Z,88.10
2018-02-08T20:38:05.507Z,76.77
2018-02-08T20:40:33.889Z,80.70
2018-02-08T20:43:07.958Z,77.33
2018-02-08T20:45:35.912Z,78.30
2018-02-08T20:48:03.489Z,76.10
2018-02-08T20:50:31.089Z,81.07
2018-02-08T20:53:04.129Z,84.27
2018-02-08T20:55:31.704Z,76.17
2018-02-08T20:57:59.272Z,78.43
2018-02-08T21:00:26.888Z,79.90
2018-02-08T21:02:54.476Z,84.30
2018-02-08T21:05:22.059Z,86.00
2018-02-08T21:07:49.687Z,85.63
2018-02-08T21:10:17.271Z,89.50
2018-02-08T21:12:45.686Z,86.37
2018-02-08T21:15:13.318Z,78.60
2018-02-08T21:17:40.888Z,82.17
2018-02-08T21:20:10.085Z,90.60
2018-02-08T21:22:41.489Z,81.23
2018-02-08T21:25:09.106Z,76.60
2018-02-08T21:27:36.668Z,79.10
2018-02-08T21:30:04.342Z,80.13
2018-02-08T21:32:31.908Z,85.57
2018-02-08T21:34:59.479Z,80.80
2018-02-08T21:37:27.083Z,73.27
2018-02-08T21:39:55.557Z,82.40
2018-02-08T21:42:23.885Z,87.57
2018-02-08T21:44:51.534Z,81.53
2018-02-08T21:47:19.106Z,85.83
2018-02-08T21:49:46.697Z,83.13
2018-02-08T21:52:14.315Z,78.90
2018-02-08T21:54:41.884Z,75.17
2018-02-08T21:57:09.448Z,80.73
2018-02-08T21:59:37.052Z,84.27
2018-02-08T22:02:04.615Z,81.97
2018-02-08T22:04:33.163Z,80.07
2018-02-08T22:07:00.730Z,78.03
2018-02-08T22:09:28.299Z,80.00
2018-02-08T22:11:57.413Z,80.50
2018-02-08T22:14:25.779Z,90.27
2018-02-08T22:16:54.141Z,71.60
2018-02-08T22:19:21.770Z,82.97
2018-02-08T22:21:49.386Z,76.73
2018-02-08T22:24:17.734Z,82.37
2018-02-08T22:26:45.349Z,82.10
2018-02-08T22:29:12.985Z,78.93
2018-02-08T22:31:41.333Z,77.70
2018-02-08T22:34:09.236Z,84.67
2018-02-08T22:36:37.832Z,77.90
2018-02-08T22:39:05.504Z,80.50
2018-02-08T22:41:33.107Z,84.13
2018-02-08T22:44:00.683Z,80.30
2018-02-08T22:46:29.050Z,79.93
2018-02-08T22:48:56.650Z,82.63
2018-02-08T22:51:24.234Z,78.93
2018-02-08T22:53:51.785Z,85.97
2018-02-08T22:56:19.434Z,86.73
2018-02-08T22:58:47.132Z,78.60
2018-02-08T23:01:14.700Z,84.80
2018-02-08T23:03:42.669Z,83.90
2018-02-08T23:06:10.221Z,80.33
2018-02-08T23:08:37.833Z,85.50
2018-02-08T23:11:05.468Z,82.43
2018-02-08T23:13:33.802Z,77.93
2018-02-08T23:16:01.370Z,75.13
2018-02-08T23:18:29.318Z,88.07
2018-02-08T23:20:56.873Z,79.23
2018-02-08T23:23:24.445Z,87.87
2018-02-08T23:25:52.052Z,79.10
2018-02-08T23:28:20.385Z,82.70
2018-02-08T23:30:47.933Z,85.33
2018-02-08T23:33:15.920Z,86.83
2018-02-08T23:35:43.477Z,76.97
2018-02-08T23:38:11.056Z,79.23
2018-02-08T23:40:38.645Z,80.47
2018-02-08T23:43:06.986Z,72.57
2018-02-08T23:45:34.564Z,83.63
2018-02-08T23:48:03.088Z,89.10
2018-02-08T23:50:30.847Z,82.23
2018-02-08T23:52:58.425Z,89.97
2018-02-08T23:55:26.011Z,85.50
2018-02-08T23:57:54.360Z,85.07
